createdAt,value
2018-07-12T00:00:58.262Z,18.62
2018-07-12T00:03:27.080Z,18.70
2018-07-12T00:05:55.616Z,18.70
2018-07-12T00:08:24.415Z,18.71
2018-07-12T00:10:53.782Z,18.68
2018-07-12T00:13:22.481Z,18.68
2018-07-12T00:15:51.412Z,18.67
2018-07-12T00:18:21.321Z,18.67
2018-07-12T00:20:50.013Z,18.69
2018-07-12T00:23:18.807Z,18.73
2018-07-12T00:25:48.222Z,18.69
2018-07-12T00:28:17.207Z,18.67
2018-07-12T00:30:46.487Z,18.68
2018-07-12T00:33:14.637Z,18.76
2018-07-12T00:35:42.927Z,18.78
2018-07-12T00:38:12.123Z,18.83
2018-07-12T00:40:41.683Z,18.84
2018-07-12T00:43:10.212Z,18.85
2018-07-12T00:45:40.674Z,18.88
2018-07-12T00:48:09.886Z,18.87
2018-07-12T00:50:38.786Z,18.87
2018-07-12T00:53:06.999Z,18.91
2018-07-12T00:55:35.154Z,18.87
2018-07-12T00:58:03.338Z,18.88
2018-07-12T01:00:31.419Z,18.91
2018-07-12T01:02:59.504Z,18.96
2018-07-12T01:05:29.496Z,18.94
2018-07-12T01:07:57.957Z,18.95
2018-07-12T01:10:27.400Z,18.95
2018-07-12T01:12:58.292Z,18.92
2018-07-12T01:15:27.399Z,18.91
2018-07-12T01:17:55.466Z,18.91
2018-07-12T01:20:24.883Z,18.94
2018-07-12T01:22:53.594Z,18.92
2018-07-12T01:25:23.751Z,18.92
2018-07-12T01:27:51.806Z,18.96
2018-07-12T01:30:21.048Z,19.02
2018-07-12T01:32:49.590Z,19.04
2018-07-12T01:35:19.402Z,19.06
2018-07-12T01:37:48.749Z,19.08
2018-07-12T01:40:17.734Z,19.06
2018-07-12T01:42:46.247Z,19.04
2018-07-12T01:45:16.007Z,19.08
2018-07-12T01:47:45.584Z,19.09
2018-07-12T01:50:14.083Z,19.10
2018-07-12T01:52:43.803Z,19.07
2018-07-12T01:55:13.720Z,19.09
2018-07-12T01:57:42.031Z,19.06
2018-07-12T02:00:10.915Z,19.06
2018-07-12T02:02:40.484Z,19.04
2018-07-12T02:05:09.341Z,18.98
2018-07-12T02:07:38.033Z,18.93
2018-07-12T02:10:07.576Z,18.97
2018-07-12T02:12:36.981Z,18.93
2018-07-12T02:15:06.384Z,18.93
2018-07-12T02:17:35.160Z,18.89
2018-07-12T02:20:03.263Z,18.89
2018-07-12T02:22:31.147Z,18.85
2018-07-12T02:24:59.740Z,18.88
2018-07-12T02:27:29.640Z,18.86
2018-07-12T02:29:58.389Z,18.84
2018-07-12T02:32:26.546Z,18.76
2018-07-12T02:34:54.377Z,18.66
2018-07-12T02:37:22.403Z,18.68
2018-07-12T02:39:51.621Z,18.68
2018-07-12T02:42:20.769Z,18.70
2018-07-12T02:44:49.823Z,18.67
2018-07-12T02:47:18.631Z,18.70
2018-07-12T02:49:48.973Z,18.68
2018-07-12T02:52:17.665Z,18.62
2018-07-12T02:54:45.507Z,18.57
2018-07-12T02:57:14.878Z,18.55
2018-07-12T02:59:43.861Z,18.52
2018-07-12T03:02:12.789Z,18.52
2018-07-12T03:04:42.946Z,18.53
2018-07-12T03:07:11.489Z,18.50
2018-07-12T03:09:41.068Z,18.46
2018-07-12T03:12:10.105Z,18.46
2018-07-12T03:14:38.911Z,18.46
2018-07-12T03:17:08.018Z,18.45
2018-07-12T03:19:36.617Z,18.42
2018-07-12T03:22:05.618Z,18.41
2018-07-12T03:24:34.826Z,18.40
2018-07-12T03:27:04.451Z,18.40
2018-07-12T03:29:33.388Z,18.43
2018-07-12T03:32:01.774Z,18.43
2018-07-12T03:34:30.459Z,18.41
2018-07-12T03:36:58.487Z,18.41
2018-07-12T03:39:27.838Z,18.40
2018-07-12T03:41:57.352Z,18.39
2018-07-12T03:44:26.757Z,18.37
2018-07-12T03:46:55.466Z,18.37
2018-07-12T03:49:24.207Z,18.37
2018-07-12T03:51:52.468Z,18.39
2018-07-12T03:54:21.086Z,18.39
2018-07-12T03:56:49.348Z,18.40
2018-07-12T03:59:17.619Z,18.42
2018-07-12T04:01:46.551Z,18.44
2018-07-12T04:04:14.743Z,18.45
2018-07-12T04:06:44.638Z,18.53
2018-07-12T04:09:13.748Z,18.56
2018-07-12T04:11:42.948Z,18.64
2018-07-12T04:14:12.067Z,18.71
2018-07-12T04:16:41.146Z,18.82
2018-07-12T04:19:09.379Z,18.89
2018-07-12T04:21:38.142Z,18.97
2018-07-12T04:24:07.772Z,18.98
2018-07-12T04:26:36.186Z,19.02
2018-07-12T04:29:05.735Z,19.04
2018-07-12T04:31:34.239Z,19.00
2018-07-12T04:34:02.739Z,18.98
2018-07-12T04:36:31.264Z,19.03
2018-07-12T04:38:59.988Z,19.13
2018-07-12T04:41:30.156Z,19.16
2018-07-12T04:43:58.967Z,19.25
2018-07-12T04:46:27.798Z,19.23
2018-07-12T04:48:56.134Z,19.22
2018-07-12T04:51:25.363Z,19.21
2018-07-12T04:53:53.676Z,19.31
2018-07-12T04:56:21.941Z,19.28
2018-07-12T04:58:50.363Z,19.34
2018-07-12T05:01:19.164Z,19.42
2018-07-12T05:03:46.880Z,19.53
2018-07-12T05:06:15.934Z,19.61
2018-07-12T05:08:44.371Z,19.52
2018-07-12T05:11:12.933Z,19.56
2018-07-12T05:13:41.637Z,19.55
2018-07-12T05:16:09.833Z,19.52
2018-07-12T05:18:38.287Z,19.49
2018-07-12T05:21:06.433Z,19.59
2018-07-12T05:23:34.893Z,19.57
2018-07-12T05:26:03.330Z,19.69
2018-07-12T05:28:34.170Z,19.73
2018-07-12T05:31:02.715Z,19.76
2018-07-12T05:33:30.897Z,19.84
2018-07-12T05:36:01.288Z,19.93
2018-07-12T05:38:32.391Z,19.79
2018-07-12T05:41:03.082Z,19.70
2018-07-12T05:43:35.725Z,19.73
2018-07-12T05:46:09.321Z,19.82
2018-07-12T05:48:41.146Z,19.74
2018-07-12T05:51:12.884Z,19.65
2018-07-12T05:53:43.033Z,19.51
2018-07-12T05:56:14.595Z,19.51
2018-07-12T05:58:46.350Z,19.56
2018-07-12T06:01:27.324Z,19.85
2018-07-12T06:03:58.289Z,19.88
2018-07-12T06:06:29.114Z,20.05
2018-07-12T06:08:59.882Z,20.10
2018-07-12T06:11:30.123Z,20.15
2018-07-12T06:14:01.374Z,20.11
2018-07-12T06:16:31.737Z,20.46
2018-07-12T06:19:04.383Z,20.51
2018-07-12T06:21:36.176Z,20.61
2018-07-12T06:24:08.050Z,20.65
2018-07-12T06:26:39.306Z,20.85
2018-07-12T06:29:11.708Z,20.83
2018-07-12T06:31:41.709Z,20.98
2018-07-12T06:34:12.667Z,20.95
2018-07-12T06:36:46.794Z,21.08
2018-07-12T06:39:19.178Z,21.08
2018-07-12T06:41:50.292Z,21.05
2018-07-12T06:44:22.506Z,21.02
2018-07-12T06:46:54.369Z,21.00
2018-07-12T06:49:26.565Z,21.01
2018-07-12T06:51:57.299Z,21.35
2018-07-12T06:54:28.076Z,21.54
2018-07-12T06:56:59.703Z,21.61
2018-07-12T06:59:30.609Z,21.33
2018-07-12T07:02:02.339Z,21.23
2018-07-12T07:04:34.419Z,21.30
2018-07-12T07:07:05.675Z,21.31
2018-07-12T07:09:37.506Z,21.31
2018-07-12T07:12:09.695Z,21.30
2018-07-12T07:14:40.478Z,21.43
2018-07-12T07:17:11.731Z,21.40
2018-07-12T07:19:44.469Z,21.43
2018-07-12T07:22:15.168Z,21.25
2018-07-12T07:24:46.118Z,21.81
2018-07-12T07:27:18.708Z,22.34
2018-07-12T07:29:49.345Z,22.26
2018-07-12T07:32:20.721Z,21.98
2018-07-12T07:34:52.173Z,21.61
2018-07-12T07:37:24.289Z,21.56
2018-07-12T07:39:54.698Z,21.38
2018-07-12T07:42:25.493Z,21.31
2018-07-12T07:44:56.281Z,21.34
2018-07-12T07:47:28.674Z,21.44
2018-07-12T07:49:59.413Z,22.09
2018-07-12T07:52:29.541Z,22.81
2018-07-12T07:54:58.001Z,23.11
2018-07-12T07:57:29.108Z,23.64
2018-07-12T08:00:02.224Z,23.58
2018-07-12T08:02:35.086Z,23.42
2018-07-12T08:05:06.190Z,23.09
2018-07-12T08:07:41.153Z,22.70
2018-07-12T08:10:15.734Z,22.75
2018-07-12T08:12:49.344Z,22.64
2018-07-12T08:15:20.090Z,22.52
2018-07-12T08:17:58.357Z,22.36
2018-07-12T08:20:34.277Z,22.46
2018-07-12T08:23:07.400Z,22.49
2018-07-12T08:25:39.663Z,22.34
2018-07-12T08:28:21.058Z,22.23
2018-07-12T08:30:53.071Z,22.14
2018-07-12T08:33:29.124Z,22.18
2018-07-12T08:36:02.678Z,22.31
2018-07-12T08:38:35.614Z,22.45
2018-07-12T08:41:09.125Z,22.36
2018-07-12T08:43:47.458Z,22.40
2018-07-12T08:46:27.828Z,22.51
2018-07-12T08:48:57.702Z,22.56
2018-07-12T08:51:31.870Z,22.83
2018-07-12T08:54:06.306Z,22.69
2018-07-12T08:56:45.266Z,22.74
2018-07-12T08:59:20.803Z,22.58
2018-07-12T09:02:00.565Z,22.75
2018-07-12T09:04:38.998Z,22.89
2018-07-12T09:07:15.668Z,24.02
2018-07-12T09:09:58.336Z,24.05
2018-07-12T09:12:32.524Z,24.20
2018-07-12T09:15:16.382Z,23.86
2018-07-12T09:17:53.268Z,23.66
2018-07-12T09:20:34.154Z,24.83
2018-07-12T09:23:10.635Z,26.08
2018-07-12T09:25:48.660Z,25.93
2018-07-12T09:28:22.977Z,25.50
2018-07-12T09:31:02.741Z,24.51
2018-07-12T09:33:47.060Z,23.92
2018-07-12T09:36:31.487Z,23.31
2018-07-12T09:39:08.665Z,22.71
2018-07-12T09:41:46.177Z,22.43
2018-07-12T09:44:17.591Z,22.45
2018-07-12T09:46:48.688Z,22.79
2018-07-12T09:49:26.914Z,23.31
2018-07-12T09:51:57.786Z,23.38
2018-07-12T09:54:33.932Z,24.55
2018-07-12T09:57:15.761Z,26.41
2018-07-12T09:59:58.364Z,28.27
2018-07-12T10:02:36.694Z,28.74
2018-07-12T10:05:13.512Z,28.65
2018-07-12T10:07:59.583Z,29.37
2018-07-12T10:10:39.876Z,29.59
2018-07-12T10:13:19.332Z,28.97
2018-07-12T10:15:56.292Z,29.19
2018-07-12T10:18:32.774Z,29.07
2018-07-12T10:21:02.504Z,28.73
2018-07-12T10:23:35.334Z,27.87
2018-07-12T10:26:09.020Z,27.25
2018-07-12T10:28:44.998Z,26.85
2018-07-12T10:31:20.054Z,26.85
2018-07-12T10:33:58.874Z,26.08
2018-07-12T10:36:36.379Z,25.46
2018-07-12T10:39:12.040Z,25.19
2018-07-12T10:41:51.687Z,25.05
2018-07-12T10:44:28.407Z,25.08
2018-07-12T10:47:00.147Z,25.58
2018-07-12T10:49:31.414Z,25.83
2018-07-12T10:52:05.532Z,25.79
2018-07-12T10:54:47.747Z,25.37
2018-07-12T10:57:29.075Z,25.02
2018-07-12T11:00:03.832Z,25.01
2018-07-12T11:02:35.136Z,25.88
2018-07-12T11:05:05.780Z,26.47
2018-07-12T11:07:36.472Z,26.08
2018-07-12T11:10:06.564Z,27.09
2018-07-12T11:12:38.524Z,26.90
2018-07-12T11:15:07.654Z,26.11
2018-07-12T11:17:38.705Z,26.18
2018-07-12T11:20:09.124Z,26.63
2018-07-12T11:22:38.626Z,26.43
2018-07-12T11:25:07.575Z,26.10
2018-07-12T11:27:37.268Z,25.75
2018-07-12T11:30:09.453Z,26.44
2018-07-12T11:32:39.308Z,26.63
2018-07-12T11:35:09.322Z,27.38
2018-07-12T11:37:38.823Z,27.89
2018-07-12T11:40:09.072Z,27.62
2018-07-12T11:42:38.789Z,27.55
2018-07-12T11:45:13.602Z,27.46
2018-07-12T11:47:44.036Z,26.07
2018-07-12T11:50:14.250Z,25.79
2018-07-12T11:52:44.622Z,25.53
2018-07-12T11:55:14.294Z,25.50
2018-07-12T11:57:45.271Z,25.69
2018-07-12T12:00:15.800Z,25.57
2018-07-12T12:02:47.606Z,25.65
2018-07-12T12:05:17.176Z,25.64
2018-07-12T12:07:47.815Z,25.98
2018-07-12T12:10:18.459Z,26.73
2018-07-12T12:12:48.211Z,26.92
2018-07-12T12:15:18.188Z,27.25
2018-07-12T12:17:48.748Z,27.13
2018-07-12T12:20:21.210Z,26.72
2018-07-12T12:22:52.052Z,26.64
2018-07-12T12:25:23.448Z,26.46
2018-07-12T12:27:52.864Z,27.79
2018-07-12T12:30:21.909Z,28.31
2018-07-12T12:32:51.751Z,29.29
2018-07-12T12:35:22.943Z,29.50
2018-07-12T12:37:52.592Z,29.40
2018-07-12T12:40:22.260Z,29.76
2018-07-12T12:42:51.624Z,30.26
2018-07-12T12:45:20.846Z,29.98
2018-07-12T12:47:50.205Z,29.27
2018-07-12T12:50:19.741Z,29.04
2018-07-12T12:52:49.049Z,28.76
2018-07-12T12:55:18.117Z,28.34
2018-07-12T12:57:47.298Z,28.28
2018-07-12T13:00:19.394Z,28.39
2018-07-12T13:02:50.456Z,28.32
2018-07-12T13:05:20.554Z,27.50
2018-07-12T13:07:56.030Z,27.47
2018-07-12T13:10:30.020Z,26.98
2018-07-12T13:13:02.296Z,27.07
2018-07-12T13:15:32.424Z,27.34
2018-07-12T13:18:03.483Z,27.34
2018-07-12T13:20:35.659Z,27.34
2018-07-12T13:23:10.099Z,27.36
2018-07-12T13:25:48.209Z,27.71
2018-07-12T13:28:29.608Z,27.51
2018-07-12T13:31:09.163Z,27.52
2018-07-12T13:33:51.393Z,27.70
2018-07-12T13:36:28.779Z,27.48
2018-07-12T13:39:05.000Z,27.67
2018-07-12T13:41:43.586Z,28.07
2018-07-12T13:44:26.106Z,28.20
2018-07-12T13:47:04.739Z,28.45
2018-07-12T13:49:45.322Z,28.28
2018-07-12T13:52:29.337Z,28.08
2018-07-12T13:55:04.957Z,28.01
2018-07-12T13:57:41.473Z,27.82
2018-07-12T14:00:15.671Z,27.70
2018-07-12T14:02:48.053Z,27.66
2018-07-12T14:05:19.205Z,27.97
2018-07-12T14:07:51.183Z,28.26
2018-07-12T14:10:26.281Z,28.35
2018-07-12T14:13:01.999Z,28.08
2018-07-12T14:15:42.792Z,28.46
2018-07-12T14:18:25.298Z,28.64
2018-07-12T14:21:03.739Z,28.62
2018-07-12T14:23:41.743Z,28.79
2018-07-12T14:26:17.399Z,28.66
2018-07-12T14:28:55.832Z,28.26
2018-07-12T14:31:34.774Z,28.20
2018-07-12T14:34:08.312Z,28.30
2018-07-12T14:36:40.674Z,27.93
2018-07-12T14:39:10.476Z,27.96
2018-07-12T14:41:40.387Z,28.43
2018-07-12T14:44:10.572Z,29.06
2018-07-12T14:46:40.038Z,28.85
2018-07-12T14:49:08.983Z,29.07
2018-07-12T14:51:42.010Z,28.61
2018-07-12T14:54:12.712Z,28.50
2018-07-12T14:56:43.949Z,28.50
2018-07-12T14:59:14.565Z,28.26
2018-07-12T15:01:44.820Z,27.99
2018-07-12T15:04:17.262Z,27.88
2018-07-12T15:06:47.664Z,27.81
2018-07-12T15:09:18.318Z,27.81
2018-07-12T15:11:50.034Z,27.75
2018-07-12T15:14:21.014Z,27.83
2018-07-12T15:16:50.558Z,27.83
2018-07-12T15:19:23.045Z,27.90
2018-07-12T15:21:52.757Z,27.93
2018-07-12T15:24:22.271Z,27.88
2018-07-12T15:26:52.710Z,27.73
2018-07-12T15:29:24.660Z,27.51
2018-07-12T15:35:40.489Z,27.65
2018-07-12T15:38:12.118Z,27.83
2018-07-12T15:40:45.088Z,27.85
2018-07-12T15:43:23.975Z,27.90
2018-07-12T15:45:58.776Z,27.94
2018-07-12T15:48:31.316Z,28.12
2018-07-12T15:51:05.278Z,28.13
2018-07-12T15:53:34.016Z,28.14
2018-07-12T15:56:05.801Z,28.30
2018-07-12T15:58:37.361Z,28.43
2018-07-12T16:01:08.261Z,28.50
2018-07-12T16:03:39.742Z,28.58
2018-07-12T16:06:12.825Z,28.52
2018-07-12T16:08:45.508Z,28.42
2018-07-12T16:11:18.105Z,28.64
2018-07-12T16:13:52.706Z,28.79
2018-07-12T16:16:26.458Z,28.91
2018-07-12T16:19:03.132Z,28.95
2018-07-12T16:21:35.220Z,28.92
2018-07-12T16:24:06.808Z,29.14
2018-07-12T16:26:36.810Z,29.15
2018-07-12T16:29:07.746Z,29.38
2018-07-12T16:31:38.201Z,29.41
2018-07-12T16:34:09.571Z,29.15
2018-07-12T16:36:39.160Z,29.08
2018-07-12T16:39:10.397Z,28.92
2018-07-12T16:41:41.207Z,28.88
2018-07-12T16:44:15.130Z,28.84
2018-07-12T16:46:44.953Z,28.81
2018-07-12T16:49:15.678Z,28.65
2018-07-12T16:51:46.555Z,28.50
2018-07-12T16:54:14.879Z,28.53
2018-07-12T16:56:43.310Z,28.45
2018-07-12T16:59:11.395Z,28.22
2018-07-12T17:01:39.656Z,28.09
2018-07-12T17:04:08.096Z,27.81
2018-07-12T17:06:36.131Z,27.84
2018-07-12T17:09:05.553Z,27.85
2018-07-12T17:11:34.007Z,27.91
2018-07-12T17:14:02.431Z,27.88
2018-07-12T17:16:30.750Z,27.89
2018-07-12T17:18:58.835Z,27.81
2018-07-12T17:21:27.545Z,27.77
2018-07-12T17:23:55.852Z,27.67
2018-07-12T17:26:24.134Z,27.56
2018-07-12T17:28:52.320Z,27.42
2018-07-12T17:31:20.768Z,27.31
2018-07-12T17:33:48.972Z,27.18
2018-07-12T17:36:17.893Z,27.12
2018-07-12T17:38:45.922Z,27.04
2018-07-12T17:41:14.139Z,26.93
2018-07-12T17:43:42.154Z,26.81
2018-07-12T17:46:10.793Z,26.71
2018-07-12T17:48:40.552Z,26.62
2018-07-12T17:51:10.306Z,26.54
2018-07-12T17:53:38.407Z,26.50
2018-07-12T17:56:06.685Z,26.43
2018-07-12T17:58:34.849Z,26.33
2018-07-12T18:01:02.858Z,26.30
2018-07-12T18:03:31.274Z,26.38
2018-07-12T18:05:59.767Z,26.37
2018-07-12T18:08:27.850Z,26.39
2018-07-12T18:10:56.005Z,26.44
2018-07-12T18:13:24.213Z,26.48
2018-07-12T18:15:52.270Z,26.48
2018-07-12T18:18:20.328Z,26.44
2018-07-12T18:20:49.887Z,26.35
